Time;durP1;ratioP1;P1;durP2;ratioP2;P2;SDS_P1;SDS_P2;PMS_P1;PMS_P2;Temp;Humidity;BMP_temperature;BMP_pressure;BME280_temperature;BME280_humidity;BME280_pressure;Samples;Min_cycle;Max_cycle;Signal;HPM_P1;HPM_P2
2023/08/07 00:01:31;;;;;;;5.55;3.10;;;;;;;-144.73;100.00;54510.31;4987170;28;20044;-71
2023/08/07 00:03:56;;;;;;;7.65;3.17;;;;;;;-144.73;100.00;54543.16;4989711;28;20019;-71
2023/08/07 00:06:21;;;;;;;8.15;2.55;;;;;;;-144.73;100.00;54530.84;4999291;28;20409;-71
2023/08/07 00:08:47;;;;;;;13.23;2.60;;;;;;;-144.73;100.00;54571.91;4975277;28;20020;-71
2023/08/07 00:11:12;;;;;;;3.58;2.38;;;;;;;-144.73;100.00;54489.81;4965958;28;20037;-71
2023/08/07 00:13:38;;;;;;;13.23;2.40;;;;;;;-144.73;100.00;54506.22;5007795;28;20029;-71
2023/08/07 00:16:06;;;;;;;11.50;3.00;;;;;;;-144.73;100.00;54539.06;4978865;28;20098;-71
2023/08/07 00:18:31;;;;;;;9.25;3.05;;;;;;;-144.73;100.00;54456.97;4990160;28;20040;-71
2023/08/07 00:20:57;;;;;;;8.38;3.00;;;;;;;-144.73;100.00;54502.13;5005099;28;20037;-71
2023/08/07 00:23:22;;;;;;;8.68;2.67;;;;;;;-144.73;100.00;54539.06;4973759;28;20026;-71
2023/08/07 00:25:47;;;;;;;11.27;2.75;;;;;;;-144.73;100.00;54541.13;4972162;28;20083;-70
2023/08/07 00:28:13;;;;;;;4.00;2.35;;;;;;;-144.73;100.00;54479.53;5025456;28;20468;-70
2023/08/07 00:30:38;;;;;;;6.60;2.30;;;;;;;-144.73;100.00;54522.63;4989690;28;20031;-71
2023/08/07 00:33:03;;;;;;;8.80;2.20;;;;;;;-144.73;100.00;54530.84;4966932;28;20039;-70
2023/08/07 00:35:29;;;;;;;9.07;2.75;;;;;;;-144.73;100.00;54489.81;5010388;28;20037;-71
2023/08/07 00:37:54;;;;;;;6.68;2.40;;;;;;;-144.73;100.00;54502.13;4948927;28;20042;-71
2023/08/07 00:40:19;;;;;;;6.13;2.80;;;;;;;-144.73;100.00;54541.13;4951507;28;20148;-70
2023/08/07 00:42:45;;;;;;;6.35;2.80;;;;;;;-144.73;100.00;54498.00;4940225;28;20106;-71
2023/08/07 00:45:10;;;;;;;7.32;2.65;;;;;;;-144.73;100.00;54510.31;5034678;28;20042;-70
2023/08/07 00:47:37;;;;;;;6.50;2.45;;;;;;;-144.73;100.00;54506.22;4952156;28;20054;-70
2023/08/07 00:50:03;;;;;;;5.50;2.55;;;;;;;-144.73;100.00;54493.91;4971623;28;20032;-70
2023/08/07 00:52:32;;;;;;;9.30;2.67;;;;;;;-144.73;100.00;54502.13;4949624;28;20086;-71
2023/08/07 00:54:57;;;;;;;3.17;2.17;;;;;;;-144.73;100.00;54473.38;4962355;28;20118;-71
2023/08/07 00:57:24;;;;;;;7.95;2.35;;;;;;;-144.73;100.00;54504.16;4979114;28;20115;-71
2023/08/07 00:59:50;;;;;;;4.80;2.22;;;;;;;-144.73;100.00;54510.31;5002881;28;20040;-70
2023/08/07 01:02:15;;;;;;;7.25;2.05;;;;;;;-144.73;100.00;54498.00;4992090;28;20028;-70
2023/08/07 01:04:41;;;;;;;12.10;2.72;;;;;;;-144.73;100.00;54502.13;5032688;28;20039;-71
2023/08/07 01:07:06;;;;;;;8.73;2.40;;;;;;;-144.73;100.00;54508.28;4947413;28;20089;-70
2023/08/07 01:09:32;;;;;;;9.05;2.00;;;;;;;-144.73;100.00;54493.91;4961189;28;20082;-70
2023/08/07 01:12:19;;;;;;;12.00;2.70;;;;;;;-144.73;100.00;54506.22;4987822;28;20033;-70
2023/08/07 01:14:58;;;;;;;5.97;2.28;;;;;;;-144.73;100.00;54502.13;4988769;28;20027;-71
2023/08/07 01:17:24;;;;;;;5.07;2.50;;;;;;;-144.73;100.00;54522.63;4962809;28;20037;-70
2023/08/07 01:19:52;;;;;;;8.95;2.17;;;;;;;-144.73;100.00;54530.84;4991653;28;20115;-70
2023/08/07 01:22:18;;;;;;;8.18;2.40;;;;;;;-144.73;100.00;54514.44;5018867;28;20062;-70
2023/08/07 01:24:45;;;;;;;9.70;2.72;;;;;;;-144.73;100.00;54518.53;4978214;28;20025;-71
2023/08/07 01:27:17;;;;;;;5.10;2.33;;;;;;;-144.73;100.00;54489.81;4950547;28;20159;-70
2023/08/07 01:30:02;;;;;;;7.05;2.83;;;;;;;-144.73;100.00;54539.06;5015850;28;20027;-71
2023/08/07 01:33:04;;;;;;;10.55;2.45;;;;;;;-144.73;100.00;54526.75;4949728;28;20036;-70
2023/08/07 01:35:34;;;;;;;6.65;2.50;;;;;;;-144.73;100.00;54539.06;4969821;28;20039;-71
2023/08/07 01:38:02;;;;;;;6.90;2.50;;;;;;;-144.73;100.00;54514.44;4933583;28;20041;-70
2023/08/07 01:40:28;;;;;;;4.00;2.45;;;;;;;-144.73;100.00;54498.00;4974268;28;20028;-70
2023/08/07 01:42:54;;;;;;;5.55;2.70;;;;;;;-144.73;100.00;54493.91;5001945;28;20048;-70
2023/08/07 01:45:28;;;;;;;7.55;2.75;;;;;;;-144.73;100.00;54489.81;4963742;28;20494;-71
2023/08/07 01:47:55;;;;;;;7.78;2.40;;;;;;;-144.73;100.00;54514.44;5001009;28;20024;-70
2023/08/07 01:50:21;;;;;;;6.40;3.20;;;;;;;-144.73;100.00;54514.44;4980417;28;20027;-70
2023/08/07 01:52:47;;;;;;;8.75;2.47;;;;;;;-144.73;100.00;54518.53;4992274;28;20035;-70
2023/08/07 01:55:16;;;;;;;6.57;2.50;;;;;;;-144.73;100.00;54491.84;4970321;28;20032;-71
2023/08/07 01:57:42;;;;;;;8.98;2.50;;;;;;;-144.73;100.00;54543.16;4974572;28;20027;-71
2023/08/07 02:00:11;;;;;;;8.80;2.45;;;;;;;-144.73;100.00;54473.38;5008638;28;20021;-71
2023/08/07 02:02:37;;;;;;;12.57;2.80;;;;;;;-144.73;100.00;54498.00;4981303;28;20035;-70
2023/08/07 02:05:03;;;;;;;7.82;2.42;;;;;;;-144.73;100.00;54547.28;4966633;28;20035;-71
2023/08/07 02:07:29;;;;;;;9.65;2.70;;;;;;;-144.73;100.00;54489.81;4967093;28;20097;-71
2023/08/07 02:09:54;;;;;;;7.85;2.38;;;;;;;-144.73;100.00;54522.63;4967992;28;20019;-70
2023/08/07 02:12:20;;;;;;;10.00;2.67;;;;;;;-144.73;100.00;54539.06;4956693;28;20051;-70
2023/08/07 02:14:45;;;;;;;15.60;2.78;;;;;;;-144.73;100.00;54506.22;4934157;28;20019;-71
2023/08/07 02:17:11;;;;;;;6.95;2.33;;;;;;;-144.73;100.00;54522.63;4933565;28;20146;-70
2023/08/07 02:19:36;;;;;;;5.70;2.25;;;;;;;-144.73;100.00;54514.44;4956122;28;20034;-70
2023/08/07 02:22:02;;;;;;;13.30;3.20;;;;;;;-144.73;100.00;54483.66;4949100;28;20077;-70
2023/08/07 02:24:27;;;;;;;9.98;2.58;;;;;;;-144.73;100.00;54522.63;4930413;28;20042;-70
2023/08/07 02:26:53;;;;;;;7.55;2.35;;;;;;;-144.73;100.00;54559.59;4967270;28;20049;-70
2023/08/07 02:29:18;;;;;;;3.80;2.13;;;;;;;-144.73;100.00;54498.00;4996265;28;20028;-71
2023/08/07 02:31:44;;;;;;;8.55;2.65;;;;;;;-144.73;100.00;54498.00;4991284;28;20062;-70
2023/08/07 02:34:09;;;;;;;8.20;3.05;;;;;;;-144.73;100.00;54543.16;4992642;28;20110;-70
2023/08/07 02:36:34;;;;;;;8.40;2.80;;;;;;;-144.73;100.00;54510.31;4968729;28;20055;-70
2023/08/07 02:39:00;;;;;;;8.80;3.33;;;;;;;-144.73;100.00;54522.63;4974056;28;20038;-70
2023/08/07 02:41:25;;;;;;;7.10;2.60;;;;;;;-144.73;100.00;54547.28;4977059;28;20036;-70
2023/08/07 02:43:50;;;;;;;11.73;3.03;;;;;;;-144.73;100.00;54567.81;5011973;28;20033;-70
2023/08/07 02:46:16;;;;;;;5.60;2.22;;;;;;;-144.73;100.00;54483.66;4968327;28;20556;-70
2023/08/07 02:48:43;;;;;;;7.68;2.42;;;;;;;-144.73;100.00;54539.06;4932600;28;20031;-70
2023/08/07 02:51:09;;;;;;;9.63;2.75;;;;;;;-144.73;100.00;54493.91;4935788;28;20035;-70
2023/08/07 02:53:34;;;;;;;6.07;2.35;;;;;;;-144.73;100.00;54493.91;4942147;28;20431;-70
2023/08/07 02:56:00;;;;;;;6.63;2.63;;;;;;;-144.73;100.00;54526.75;4947294;28;20087;-70
2023/08/07 02:58:25;;;;;;;10.70;2.45;;;;;;;-144.73;100.00;54506.22;4954356;28;20092;-71
2023/08/07 03:00:50;;;;;;;8.60;2.83;;;;;;;-144.73;100.00;54539.06;4977425;28;20027;-71
2023/08/07 03:03:16;;;;;;;5.10;2.53;;;;;;;-144.73;100.00;54557.53;4950657;28;20070;-71
2023/08/07 03:05:49;;;;;;;8.18;2.50;;;;;;;-144.73;100.00;54539.06;4999685;28;20036;-71
2023/08/07 03:08:15;;;;;;;7.03;2.50;;;;;;;-144.73;100.00;54498.00;4968558;28;20024;-70
2023/08/07 03:10:40;;;;;;;13.73;2.20;;;;;;;-144.73;100.00;54514.44;4938594;28;20032;-71
2023/08/07 03:13:06;;;;;;;7.28;2.58;;;;;;;-144.73;100.00;54522.63;4939300;28;20066;-71
2023/08/07 03:15:31;;;;;;;12.82;2.55;;;;;;;-144.73;100.00;54559.59;4948246;28;20032;-71
2023/08/07 03:17:56;;;;;;;15.05;2.78;;;;;;;-144.73;100.00;54510.31;4933525;28;20092;-70
2023/08/07 03:20:22;;;;;;;5.13;2.60;;;;;;;-144.73;100.00;54539.06;4972036;28;20025;-71
2023/08/07 03:22:47;;;;;;;6.63;1.80;;;;;;;-144.73;100.00;54514.44;4974987;28;20069;-71
2023/08/07 03:25:13;;;;;;;11.70;2.10;;;;;;;-144.73;100.00;54539.06;4972659;28;20603;-71
2023/08/07 03:27:38;;;;;;;6.03;2.05;;;;;;;-144.73;100.00;54543.16;4991561;28;20057;-71
2023/08/07 03:30:04;;;;;;;6.50;2.10;;;;;;;-144.73;100.00;54522.63;5002754;28;20080;-71
2023/08/07 03:32:29;;;;;;;6.60;2.40;;;;;;;-144.73;100.00;54502.13;4932556;28;20038;-71
2023/08/07 03:34:55;;;;;;;9.02;3.00;;;;;;;-144.73;100.00;54514.44;4968879;28;20114;-71
2023/08/07 03:37:20;;;;;;;8.85;2.30;;;;;;;-144.73;100.00;54543.16;4925084;28;20521;-71
2023/08/07 03:39:47;;;;;;;8.88;2.50;;;;;;;-144.73;100.00;54516.47;4928574;28;20031;-71
2023/08/07 03:42:14;;;;;;;6.63;1.90;;;;;;;-144.73;100.00;54508.28;5012930;28;20048;-71
2023/08/07 03:44:40;;;;;;;9.10;2.30;;;;;;;-144.73;100.00;54539.06;4990790;28;20039;-71
2023/08/07 03:47:05;;;;;;;5.38;2.10;;;;;;;-144.73;100.00;54555.47;5008706;28;20039;-71
2023/08/07 03:49:31;;;;;;;6.18;2.47;;;;;;;-144.73;100.00;54604.75;4974499;28;20028;-71
2023/08/07 03:51:58;;;;;;;10.80;2.75;;;;;;;-144.73;100.00;54559.59;5012434;28;20116;-71
2023/08/07 03:54:24;;;;;;;5.20;2.30;;;;;;;-144.73;100.00;54522.63;4979552;28;20029;-71
2023/08/07 03:56:51;;;;;;;10.13;2.95;;;;;;;-144.73;100.00;54514.44;4986293;28;20025;-71
2023/08/07 03:59:17;;;;;;;6.80;2.47;;;;;;;-144.73;100.00;54498.00;4975471;28;20028;-71
2023/08/07 04:01:42;;;;;;;10.70;2.33;;;;;;;-144.73;100.00;54539.06;4946313;28;20036;-69
2023/08/07 04:04:08;;;;;;;13.90;3.03;;;;;;;-144.73;100.00;54539.06;4937445;28;20050;-71
2023/08/07 04:06:33;;;;;;;16.10;3.13;;;;;;;-144.73;100.00;54604.75;4944873;28;20087;-71
2023/08/07 04:08:58;;;;;;;10.95;2.75;;;;;;;-144.73;100.00;54518.53;4956463;28;20042;-71
2023/08/07 04:11:24;;;;;;;21.30;2.50;;;;;;;-144.73;100.00;54551.38;4972331;28;20043;-71
2023/08/07 04:13:50;;;;;;;8.57;3.10;;;;;;;-144.73;100.00;54543.16;4951091;28;20019;-71
2023/08/07 04:16:16;;;;;;;10.18;3.20;;;;;;;-144.73;100.00;54498.00;4982777;28;20040;-70
2023/08/07 04:18:42;;;;;;;8.85;3.45;;;;;;;-144.73;100.00;54539.06;5017861;28;20037;-71
2023/08/07 04:21:08;;;;;;;17.95;3.03;;;;;;;-144.73;100.00;54520.59;5011892;28;20039;-71
2023/08/07 04:23:33;;;;;;;14.27;3.58;;;;;;;-144.73;100.00;54514.44;4993917;28;20051;-71
2023/08/07 04:25:59;;;;;;;9.80;2.75;;;;;;;-144.73;100.00;54555.47;4981031;28;20084;-71
2023/08/07 04:28:24;;;;;;;7.18;2.60;;;;;;;-144.73;100.00;54539.06;4987289;28;20015;-71
2023/08/07 04:30:51;;;;;;;20.88;3.15;;;;;;;-144.73;100.00;54493.91;5004346;28;20041;-71
2023/08/07 04:33:19;;;;;;;11.30;2.97;;;;;;;-144.73;100.00;54518.53;5012783;28;21045;-70
2023/08/07 04:35:46;;;;;;;18.33;3.97;;;;;;;-144.73;100.00;54539.06;4961453;28;20027;-71
2023/08/07 04:38:12;;;;;;;15.30;3.58;;;;;;;-144.73;100.00;54502.13;5019482;28;20021;-71
2023/08/07 04:40:37;;;;;;;18.23;3.65;;;;;;;-144.73;100.00;54567.81;4965963;28;20518;-71
2023/08/07 04:43:03;;;;;;;10.15;3.08;;;;;;;-144.73;100.00;54518.53;5036992;28;20036;-71
2023/08/07 04:45:28;;;;;;;9.82;3.08;;;;;;;-144.73;100.00;54522.63;4948790;28;20055;-71
2023/08/07 04:47:54;;;;;;;12.82;3.05;;;;;;;-144.73;100.00;54528.81;5006883;28;20017;-71
2023/08/07 04:50:19;;;;;;;15.63;3.50;;;;;;;-144.73;100.00;54543.16;4994254;28;20502;-71
2023/08/07 04:52:44;;;;;;;10.48;3.30;;;;;;;-144.73;100.00;54514.44;4987565;28;20082;-71
2023/08/07 04:55:10;;;;;;;9.90;3.75;;;;;;;-144.73;100.00;54543.16;4955643;28;20051;-71
2023/08/07 04:57:35;;;;;;;14.50;3.30;;;;;;;-144.73;100.00;54518.53;4965128;28;20115;-71
2023/08/07 05:00:00;;;;;;;14.05;3.00;;;;;;;-144.73;100.00;54524.69;4953494;28;20036;-71
2023/08/07 05:02:26;;;;;;;12.40;3.53;;;;;;;-144.73;100.00;54557.53;5000918;28;20050;-71
2023/08/07 05:04:51;;;;;;;10.57;3.30;;;;;;;-144.73;100.00;54518.53;4977336;28;20027;-71
2023/08/07 05:07:16;;;;;;;12.40;3.10;;;;;;;-144.73;100.00;54518.53;4947866;28;20058;-71
2023/08/07 05:09:42;;;;;;;10.02;3.67;;;;;;;-144.73;100.00;54522.63;4980880;28;20565;-71
2023/08/07 05:12:07;;;;;;;10.18;3.00;;;;;;;-144.73;100.00;54539.06;5012410;28;20497;-71
2023/08/07 05:14:33;;;;;;;9.32;2.75;;;;;;;-144.73;100.00;54563.69;4985233;28;20035;-71
2023/08/07 05:17:01;;;;;;;18.98;3.53;;;;;;;-144.73;100.00;54584.22;5010659;28;20394;-71
2023/08/07 05:19:26;;;;;;;21.48;4.32;;;;;;;-144.73;100.00;54539.06;5005610;28;20025;-71
2023/08/07 05:21:52;;;;;;;17.27;3.65;;;;;;;-144.73;100.00;54551.38;5014226;28;20067;-71
2023/08/07 05:24:18;;;;;;;12.27;3.42;;;;;;;-144.73;100.00;54551.38;5052912;28;20032;-71
2023/08/07 05:26:43;;;;;;;10.10;3.03;;;;;;;-144.73;100.00;54576.00;4969872;28;20031;-71
2023/08/07 05:29:09;;;;;;;14.93;4.35;;;;;;;-144.73;100.00;54506.22;5004644;28;20173;-71
2023/08/07 05:31:34;;;;;;;17.73;3.83;;;;;;;-144.73;100.00;54539.06;4983802;28;20071;-71
2023/08/07 05:34:00;;;;;;;12.77;3.35;;;;;;;-144.73;100.00;54543.16;5053122;28;20029;-71
2023/08/07 05:36:25;;;;;;;14.20;3.53;;;;;;;-144.73;100.00;54549.31;5031010;28;20031;-71
2023/08/07 05:38:51;;;;;;;9.70;3.75;;;;;;;-144.73;100.00;54520.59;4985659;28;20047;-71
2023/08/07 05:41:16;;;;;;;11.63;2.95;;;;;;;-144.73;100.00;54510.31;4968071;28;20035;-71
2023/08/07 05:43:41;;;;;;;14.98;3.22;;;;;;;-144.73;100.00;54555.47;4972227;28;20061;-71
2023/08/07 05:46:07;;;;;;;16.20;3.95;;;;;;;-144.73;100.00;54539.06;4994016;28;20035;-71
2023/08/07 05:48:32;;;;;;;13.23;3.25;;;;;;;-144.73;100.00;54553.44;5005074;28;20017;-71
2023/08/07 05:50:57;;;;;;;12.68;3.20;;;;;;;-144.73;100.00;54539.06;4980422;28;20083;-71
2023/08/07 05:53:23;;;;;;;7.65;3.38;;;;;;;-144.73;100.00;54549.31;4997447;28;20036;-71
2023/08/07 05:55:48;;;;;;;16.50;3.03;;;;;;;-144.73;100.00;54498.00;4987591;28;20032;-71
2023/08/07 05:58:13;;;;;;;13.30;3.05;;;;;;;-144.73;100.00;54493.91;4976149;28;20482;-71
2023/08/07 06:00:39;;;;;;;15.82;3.63;;;;;;;-144.73;100.00;54553.44;4946748;28;20046;-71
2023/08/07 06:03:04;;;;;;;24.50;4.32;;;;;;;-144.73;100.00;54571.91;5009795;28;20023;-71
2023/08/07 06:05:30;;;;;;;11.20;2.70;;;;;;;-144.73;100.00;54510.31;4959738;28;20035;-71
2023/08/07 06:07:55;;;;;;;15.43;3.50;;;;;;;-144.73;100.00;54539.06;5011541;28;20029;-71
2023/08/07 06:10:20;;;;;;;15.75;3.00;;;;;;;-144.73;100.00;54539.06;5014852;28;20016;-71
2023/08/07 06:12:46;;;;;;;17.55;3.50;;;;;;;-144.73;100.00;54528.81;5001057;28;20013;-71
2023/08/07 06:15:11;;;;;;;17.02;3.28;;;;;;;-144.73;100.00;54563.69;5039951;28;20074;-71
2023/08/07 06:17:39;;;;;;;30.00;3.95;;;;;;;-144.73;100.00;54555.47;4985873;28;20092;-71
2023/08/07 06:20:07;;;;;;;16.58;3.17;;;;;;;-144.73;100.00;54526.75;4936802;28;20026;-71
2023/08/07 06:22:32;;;;;;;20.88;3.85;;;;;;;-144.73;100.00;54551.38;4942813;28;20032;-71
2023/08/07 06:24:58;;;;;;;18.23;4.20;;;;;;;-144.73;100.00;54514.44;4963716;28;20027;-71
2023/08/07 06:27:23;;;;;;;20.90;3.95;;;;;;;-144.73;100.00;54506.22;4942756;28;20027;-71
2023/08/07 06:29:48;;;;;;;16.40;3.47;;;;;;;-144.73;100.00;54551.38;4935570;28;20023;-71
2023/08/07 06:32:14;;;;;;;22.23;3.50;;;;;;;-144.73;100.00;54539.06;4942716;28;20343;-72
2023/08/07 06:34:39;;;;;;;14.35;3.55;;;;;;;-144.73;100.00;54547.28;4937997;28;20085;-71
2023/08/07 06:37:05;;;;;;;30.77;4.40;;;;;;;-144.73;100.00;54555.47;4940763;28;20031;-71
2023/08/07 06:39:31;;;;;;;19.98;4.15;;;;;;;-144.73;100.00;54604.75;4937624;28;20417;-71
2023/08/07 06:41:56;;;;;;;23.08;4.35;;;;;;;-144.73;100.00;54543.16;4975817;28;20116;-71
2023/08/07 06:44:21;;;;;;;21.05;4.32;;;;;;;-144.73;100.00;54518.53;4960220;28;20045;-71
2023/08/07 06:46:47;;;;;;;22.67;4.70;;;;;;;-144.73;100.00;54514.44;5027547;28;20060;-71
2023/08/07 06:49:12;;;;;;;21.90;5.32;;;;;;;-144.73;100.00;54522.63;4943315;28;20065;-71
2023/08/07 06:51:37;;;;;;;27.95;4.82;;;;;;;-144.73;100.00;54518.53;4934407;28;20039;-71
2023/08/07 06:54:04;;;;;;;24.45;5.45;;;;;;;-144.73;100.00;54510.31;4939715;28;20176;-71
2023/08/07 06:56:29;;;;;;;20.20;4.97;;;;;;;-144.73;100.00;54502.13;4966580;28;20382;-71
2023/08/07 06:58:54;;;;;;;31.67;4.70;;;;;;;-144.73;100.00;54522.63;4942723;28;20035;-71
2023/08/07 07:01:20;;;;;;;27.35;4.80;;;;;;;-144.73;100.00;54514.44;4939137;28;20058;-71
2023/08/07 07:03:46;;;;;;;26.15;4.53;;;;;;;-144.73;100.00;54563.69;4970969;28;20025;-71
2023/08/07 07:06:13;;;;;;;26.50;4.50;;;;;;;-144.73;100.00;54518.53;4973447;28;20044;-71
2023/08/07 07:08:38;;;;;;;23.02;4.35;;;;;;;-144.73;100.00;54512.38;4973336;28;20020;-72
2023/08/07 07:11:04;;;;;;;22.10;4.47;;;;;;;-144.73;100.00;54506.22;4934136;28;20039;-71
2023/08/07 07:13:30;;;;;;;21.95;4.13;;;;;;;-144.73;100.00;54518.53;4952487;28;20112;-71
2023/08/07 07:15:58;;;;;;;25.83;4.05;;;;;;;-144.73;100.00;54526.75;4936576;28;20059;-72
2023/08/07 07:18:23;;;;;;;33.67;4.47;;;;;;;-144.73;100.00;54518.53;4936374;28;20023;-71
2023/08/07 07:20:57;;;;;;;27.20;4.93;;;;;;;-144.73;100.00;54522.63;4978550;28;20033;-71
2023/08/07 07:23:22;;;;;;;35.03;5.10;;;;;;;-144.73;100.00;54477.47;5013479;28;20032;-70
2023/08/07 07:25:48;;;;;;;21.48;5.43;;;;;;;-144.73;100.00;54502.13;5027237;28;20086;-71
2023/08/07 07:28:13;;;;;;;19.38;4.15;;;;;;;-144.73;100.00;54502.13;4978113;28;20035;-71
2023/08/07 07:30:39;;;;;;;31.63;5.15;;;;;;;-144.73;100.00;54539.06;4953134;28;20042;-70
2023/08/07 07:33:04;;;;;;;14.80;3.88;;;;;;;-144.73;100.00;54539.06;5033692;28;20380;-70
2023/08/07 07:35:30;;;;;;;21.33;5.40;;;;;;;-144.73;100.00;54514.44;4966222;28;20116;-70
2023/08/07 07:37:56;;;;;;;18.65;4.20;;;;;;;-144.73;100.00;54481.59;5020020;28;20038;-70
2023/08/07 07:40:21;;;;;;;22.60;4.90;;;;;;;-144.73;100.00;54551.38;4932493;28;20039;-70
2023/08/07 07:42:46;;;;;;;24.70;5.10;;;;;;;-144.73;100.00;54604.75;4933488;28;20058;-70
2023/08/07 07:45:12;;;;;;;33.47;5.07;;;;;;;-144.73;100.00;54512.38;4936147;28;20106;-71
2023/08/07 07:47:37;;;;;;;24.85;4.68;;;;;;;-144.73;100.00;54510.31;4935143;28;20501;-70
2023/08/07 07:50:08;;;;;;;27.95;5.45;;;;;;;-144.73;100.00;54493.91;4954096;28;20027;-71
2023/08/07 07:52:33;;;;;;;20.23;5.20;;;;;;;-144.73;100.00;54506.22;5018369;28;20063;-70
2023/08/07 07:54:59;;;;;;;24.38;4.15;;;;;;;-144.73;100.00;54576.00;4949115;28;20019;-70
2023/08/07 07:57:27;;;;;;;27.27;5.07;;;;;;;-144.73;100.00;54539.06;4991274;28;20044;-71
2023/08/07 07:59:53;;;;;;;29.08;5.32;;;;;;;-144.73;100.00;54547.28;4951579;28;20069;-71
2023/08/07 08:02:18;;;;;;;20.63;5.05;;;;;;;-144.73;100.00;54489.81;4970897;28;20035;-71
2023/08/07 08:04:43;;;;;;;26.58;4.63;;;;;;;-144.73;100.00;54498.00;4933989;29;20091;-70
2023/08/07 08:07:09;;;;;;;21.55;5.20;;;;;;;-144.73;100.00;54530.84;4933048;29;20036;-70
2023/08/07 08:09:34;;;;;;;33.15;5.35;;;;;;;-144.73;100.00;54530.84;4933523;28;20455;-71
2023/08/07 08:11:59;;;;;;;24.17;5.65;;;;;;;-144.73;100.00;54498.00;4933435;28;20575;-71
2023/08/07 08:14:25;;;;;;;22.42;4.90;;;;;;;-144.73;100.00;54502.13;4933690;28;20023;-71
2023/08/07 08:16:50;;;;;;;23.50;5.43;;;;;;;-144.73;100.00;54518.53;4996079;28;20375;-71
2023/08/07 08:19:16;;;;;;;26.63;4.90;;;;;;;-144.73;100.00;54518.53;4935727;28;20031;-71
2023/08/07 08:21:42;;;;;;;30.13;5.93;;;;;;;-144.73;100.00;54518.53;4932753;28;20042;-70
2023/08/07 08:24:07;;;;;;;20.42;4.97;;;;;;;-144.73;100.00;54489.81;4957958;28;20077;-70
2023/08/07 08:26:33;;;;;;;25.80;5.35;;;;;;;-144.73;100.00;54493.91;4959961;28;20025;-70
2023/08/07 08:28:58;;;;;;;25.38;5.18;;;;;;;-144.73;100.00;54479.53;5046579;28;20036;-70
2023/08/07 08:31:24;;;;;;;25.33;5.80;;;;;;;-144.73;100.00;54549.31;4934342;28;20032;-70
2023/08/07 08:33:49;;;;;;;23.33;5.53;;;;;;;-144.73;100.00;54518.53;4935382;28;20501;-70
2023/08/07 08:36:15;;;;;;;28.20;4.70;;;;;;;-144.73;100.00;54518.53;4934500;28;20033;-71
2023/08/07 08:38:40;;;;;;;30.55;5.40;;;;;;;-144.73;100.00;54489.81;4951958;28;20016;-71
2023/08/07 08:41:08;;;;;;;28.23;5.28;;;;;;;-144.73;100.00;54547.28;4953198;28;20088;-70
2023/08/07 08:43:38;;;;;;;23.23;4.57;;;;;;;-144.73;100.00;54510.31;4952419;28;20406;-71
2023/08/07 08:46:08;;;;;;;25.35;5.13;;;;;;;-144.73;100.00;54514.44;4954951;28;20047;-71
2023/08/07 08:48:38;;;;;;;29.85;7.50;;;;;;;-144.73;100.00;54506.22;4963750;28;20059;-71
2023/08/07 08:51:04;;;;;;;34.75;5.53;;;;;;;-144.73;100.00;54555.47;4949479;28;20042;-71
2023/08/07 08:53:30;;;;;;;34.67;5.60;;;;;;;-144.73;100.00;54526.75;4939031;28;20102;-71
2023/08/07 08:55:56;;;;;;;24.65;5.72;;;;;;;-144.73;100.00;54477.47;4970815;28;20038;-71
2023/08/07 08:58:23;;;;;;;31.35;5.72;;;;;;;-144.73;100.00;54514.44;4946819;28;20032;-70
2023/08/07 09:00:49;;;;;;;27.33;5.40;;;;;;;-144.73;100.00;54510.31;4952590;28;20036;-71
2023/08/07 09:03:15;;;;;;;31.90;5.88;;;;;;;-144.73;100.00;54514.44;5027265;28;20029;-71
2023/08/07 09:05:41;;;;;;;25.20;6.60;;;;;;;-144.73;100.00;54489.81;4939114;28;20096;-71
2023/08/07 09:08:08;;;;;;;25.40;5.35;;;;;;;-144.73;100.00;54498.00;4973633;28;20025;-71
2023/08/07 09:10:34;;;;;;;24.88;5.03;;;;;;;-144.73;100.00;54530.84;4955965;28;20051;-71
2023/08/07 09:13:03;;;;;;;33.20;6.45;;;;;;;-144.73;100.00;54541.13;4947619;28;20019;-70
2023/08/07 09:15:31;;;;;;;29.88;5.50;;;;;;;-144.73;100.00;54502.13;4990979;28;20043;-71
2023/08/07 09:17:57;;;;;;;34.72;5.95;;;;;;;-144.73;100.00;54502.13;5000255;28;20029;-71
2023/08/07 09:20:24;;;;;;;28.70;4.97;;;;;;;-144.73;100.00;54510.31;4972900;28;20094;-71
2023/08/07 09:22:49;;;;;;;20.85;4.63;;;;;;;-144.73;100.00;54506.22;5009427;28;20019;-70
2023/08/07 09:25:27;;;;;;;24.88;5.13;;;;;;;-144.73;100.00;54469.28;4974305;28;20034;-71
2023/08/07 09:27:53;;;;;;;24.15;4.30;;;;;;;-144.73;100.00;54543.16;4971583;28;20087;-71
2023/08/07 09:30:19;;;;;;;28.27;5.57;;;;;;;-144.73;100.00;54461.06;4966242;28;20066;-70
2023/08/07 09:32:47;;;;;;;26.17;4.72;;;;;;;-144.73;99.27;54459.00;4940497;28;20046;-71
2023/08/07 09:35:13;;;;;;;29.10;4.50;;;;;;;-144.73;94.96;54510.31;4982786;28;20490;-70
2023/08/07 09:37:58;;;;;;;23.67;4.75;;;;;;;-144.73;92.91;54502.13;4947606;28;20023;-71
2023/08/07 09:40:23;;;;;;;24.08;5.20;;;;;;;-144.73;91.90;54502.13;4960924;28;20027;-70
2023/08/07 09:42:53;;;;;;;23.48;5.43;;;;;;;-144.73;91.66;54514.44;5035959;28;20153;-70
2023/08/07 09:45:27;;;;;;;34.50;4.32;;;;;;;-144.73;91.33;54489.81;4942283;28;20061;-70
2023/08/07 09:48:11;;;;;;;16.45;4.95;;;;;;;-144.73;89.47;54477.47;4945138;28;20102;-70
2023/08/07 09:50:36;;;;;;;22.33;5.30;;;;;;;-144.73;86.47;54452.84;4959934;28;20071;-71
2023/08/07 09:53:02;;;;;;;15.00;4.63;;;;;;;-144.73;81.94;54493.91;4960578;28;20055;-70
2023/08/07 09:55:27;;;;;;;20.67;4.03;;;;;;;-144.73;79.21;54459.00;4960609;28;20015;-70
2023/08/07 09:57:53;;;;;;;21.73;3.70;;;;;;;-144.73;78.71;54465.16;4943737;28;20455;-70
2023/08/07 10:00:22;;;;;;;21.42;4.60;;;;;;;-144.73;76.06;54487.75;4944835;28;20027;-70
2023/08/07 10:02:49;;;;;;;29.58;4.68;;;;;;;-144.73;73.29;54440.53;5033864;28;20027;-70
2023/08/07 10:05:15;;;;;;;21.10;4.75;;;;;;;-144.73;71.07;54461.06;5031161;28;20384;-70
2023/08/07 10:07:41;;;;;;;18.48;4.75;;;;;;;-144.73;68.49;54385.13;4944347;28;20026;-70
2023/08/07 10:10:09;;;;;;;21.63;6.22;;;;;;;-144.73;68.18;54498.00;4962557;28;20027;-70
2023/08/07 10:12:36;;;;;;;11.57;3.88;;;;;;;-144.73;68.57;54452.84;4939855;28;20045;-70
2023/08/07 10:15:02;;;;;;;14.57;4.10;;;;;;;-144.73;69.31;54438.50;4943628;28;20019;-70
2023/08/07 10:17:29;;;;;;;16.77;4.10;;;;;;;-144.73;70.78;54456.97;4933308;28;20046;-71
2023/08/07 10:19:56;;;;;;;27.23;5.65;;;;;;;-144.73;69.13;54454.91;4942868;28;20023;-70
2023/08/07 10:22:26;;;;;;;26.13;4.65;;;;;;;-144.73;67.96;54452.84;4955303;28;20029;-70
2023/08/07 10:24:53;;;;;;;24.65;4.13;;;;;;;-144.73;66.29;54444.66;4956229;28;20404;-71
2023/08/07 10:27:21;;;;;;;21.10;4.13;;;;;;;-144.73;67.77;54424.13;4986188;28;20036;-70
2023/08/07 10:29:48;;;;;;;24.40;4.95;;;;;;;-144.73;66.69;54397.44;4955885;28;20042;-69
2023/08/07 10:32:15;;;;;;;20.42;4.72;;;;;;;-144.73;66.44;54461.06;5013442;28;20067;-69
2023/08/07 10:34:47;;;;;;;16.20;3.90;;;;;;;-144.73;63.66;54461.06;4976471;28;20106;-69
2023/08/07 10:37:53;;;;;;;21.88;4.50;;;;;;;-144.73;65.39;54465.16;4944843;28;20129;-70
2023/08/07 10:40:21;;;;;;;19.88;4.80;;;;;;;-144.73;70.69;54461.06;4947676;28;20029;-70
2023/08/07 10:42:57;;;;;;;20.25;5.10;;;;;;;-144.73;73.93;54456.97;5000560;28;20104;-71
2023/08/07 10:45:24;;;;;;;29.02;5.40;;;;;;;-144.73;75.85;54495.97;4952702;28;21224;-70
2023/08/07 10:48:05;;;;;;;20.02;4.57;;;;;;;-144.73;74.35;54444.66;4980113;28;20017;-70
2023/08/07 10:50:35;;;;;;;22.30;4.57;;;;;;;-144.73;74.40;54485.69;4943136;28;20035;-70
2023/08/07 10:53:05;;;;;;;22.20;4.63;;;;;;;-144.73;72.59;54456.97;4968728;28;20020;-70
2023/08/07 10:55:46;;;;;;;21.88;4.70;;;;;;;-144.73;68.37;54461.06;4943023;28;20042;-70
2023/08/07 10:58:32;;;;;;;27.48;4.63;;;;;;;-144.73;69.13;54444.66;5031882;28;20030;-70
2023/08/07 11:01:27;;;;;;;14.73;3.95;;;;;;;-144.73;68.55;54465.16;5022529;28;20494;-70
2023/08/07 11:03:55;;;;;;;20.85;4.43;;;;;;;-144.73;72.03;54456.97;4975328;28;20028;-69